createdAt,value
2018-06-22T00:00:15.946Z,19.30
2018-06-22T00:02:18.535Z,19.20
2018-06-22T00:04:21.074Z,19.20
2018-06-22T00:06:23.666Z,19.20
2018-06-22T00:08:26.255Z,19.10
2018-06-22T00:10:28.926Z,19.10
2018-06-22T00:12:31.493Z,19.20
2018-06-22T00:14:34.173Z,19.20
2018-06-22T00:16:36.741Z,19.20
2018-06-22T00:18:39.323Z,19.20
2018-06-22T00:20:41.894Z,19.20
2018-06-22T00:22:44.433Z,19.20
2018-06-22T00:24:46.997Z,19.20
2018-06-22T00:26:50.329Z,19.20
2018-06-22T00:28:53.011Z,19.20
2018-06-22T00:30:55.561Z,19.20
2018-06-22T00:32:58.159Z,19.10
2018-06-22T00:35:00.854Z,19.10
2018-06-22T00:37:03.402Z,19.00
2018-06-22T00:39:05.978Z,19.00
2018-06-22T00:41:08.534Z,19.00
2018-06-22T00:43:11.099Z,19.00
2018-06-22T00:45:14.453Z,18.90
2018-06-22T00:47:16.970Z,18.90
2018-06-22T00:49:19.521Z,18.90
2018-06-22T00:51:22.845Z,18.90
2018-06-22T00:53:37.377Z,18.90
2018-06-22T00:55:39.977Z,18.90
2018-06-22T00:57:42.525Z,18.90
2018-06-22T00:59:46.653Z,18.90
2018-06-22T01:01:49.222Z,18.90
2018-06-22T01:03:51.774Z,18.90
2018-06-22T01:05:54.389Z,18.90
2018-06-22T01:07:56.941Z,18.90
2018-06-22T01:09:59.542Z,18.90
2018-06-22T01:12:02.106Z,18.90
2018-06-22T01:14:04.706Z,18.90
2018-06-22T01:16:08.785Z,18.90
2018-06-22T01:18:11.475Z,18.90
2018-06-22T01:20:14.050Z,18.90
2018-06-22T01:22:16.604Z,18.90
2018-06-22T01:24:19.190Z,18.90
2018-06-22T01:26:21.866Z,18.80
2018-06-22T01:28:24.415Z,18.80
2018-06-22T01:30:27.005Z,18.80
2018-06-22T01:32:29.549Z,18.80
2018-06-22T01:34:32.164Z,18.80
2018-06-22T01:36:34.866Z,18.70
2018-06-22T01:38:37.414Z,18.70
2018-06-22T01:40:40.077Z,18.70
2018-06-22T01:42:42.649Z,18.70
2018-06-22T01:44:45.216Z,18.70
2018-06-22T01:46:47.774Z,18.70
2018-06-22T01:48:51.156Z,18.60
2018-06-22T01:50:53.741Z,18.60
2018-06-22T01:52:56.297Z,18.60
2018-06-22T01:55:00.098Z,18.60
2018-06-22T01:57:03.417Z,18.60
2018-06-22T01:59:05.973Z,18.60
2018-06-22T02:01:09.497Z,18.50
2018-06-22T02:03:12.050Z,18.50
2018-06-22T02:05:14.626Z,18.50
2018-06-22T02:07:17.222Z,18.50
2018-06-22T02:09:19.897Z,18.50
2018-06-22T02:11:22.465Z,18.40
2018-06-22T02:13:25.050Z,18.40
2018-06-22T02:15:27.601Z,18.40
2018-06-22T02:17:30.197Z,18.40
2018-06-22T02:19:32.754Z,18.40
2018-06-22T02:21:35.326Z,18.30
2018-06-22T02:23:37.881Z,18.30
2018-06-22T02:25:40.485Z,18.30
2018-06-22T02:27:43.162Z,18.30
2018-06-22T02:29:45.718Z,18.20
2018-06-22T02:31:48.320Z,18.30
2018-06-22T02:33:50.867Z,18.20
2018-06-22T02:35:53.449Z,18.20
2018-06-22T02:37:56.002Z,18.20
2018-06-22T02:39:58.554Z,18.20
2018-06-22T02:42:01.889Z,18.10
2018-06-22T02:44:05.286Z,18.10
2018-06-22T02:46:07.853Z,18.10
2018-06-22T02:48:10.403Z,18.10
2018-06-22T02:50:13.015Z,18.00
2018-06-22T02:52:15.586Z,18.00
2018-06-22T02:54:18.135Z,18.00
2018-06-22T02:56:20.703Z,17.90
2018-06-22T02:58:23.254Z,17.90
2018-06-22T03:00:25.801Z,17.90
2018-06-22T03:02:28.370Z,17.80
2018-06-22T03:04:30.918Z,17.80
2018-06-22T03:06:33.490Z,17.80
2018-06-22T03:08:36.098Z,17.80
2018-06-22T03:10:40.208Z,17.80
2018-06-22T03:12:42.783Z,17.80
2018-06-22T03:14:46.828Z,17.80
2018-06-22T03:16:49.390Z,17.80
2018-06-22T03:18:52.026Z,17.80
2018-06-22T03:20:56.081Z,17.80
2018-06-22T03:22:58.683Z,17.80
2018-06-22T03:25:01.258Z,17.80
2018-06-22T03:27:03.865Z,17.80
2018-06-22T03:29:06.403Z,17.80
2018-06-22T03:31:08.952Z,17.80
2018-06-22T03:33:11.552Z,17.80
2018-06-22T03:35:14.929Z,17.90
2018-06-22T03:37:17.490Z,17.80
2018-06-22T03:39:20.041Z,17.90
2018-06-22T03:41:23.392Z,17.90
2018-06-22T03:43:25.963Z,17.80
2018-06-22T03:45:28.506Z,17.80
2018-06-22T03:47:32.538Z,17.90
2018-06-22T03:49:36.021Z,17.80
2018-06-22T03:51:38.593Z,17.80
2018-06-22T03:53:41.137Z,17.80
2018-06-22T03:55:43.691Z,17.70
2018-06-22T03:57:46.462Z,17.70
2018-06-22T03:59:48.999Z,17.70
2018-06-22T04:01:51.560Z,17.60
2018-06-22T04:03:54.140Z,17.70
2018-06-22T04:05:56.822Z,17.70
2018-06-22T04:07:59.387Z,17.70
2018-06-22T04:10:01.957Z,17.70
2018-06-22T04:12:04.534Z,17.70
2018-06-22T04:14:07.076Z,17.70
2018-06-22T04:16:09.698Z,17.60
2018-06-22T04:18:12.273Z,17.60
2018-06-22T04:20:14.880Z,17.70
2018-06-22T04:22:17.448Z,17.70
2018-06-22T04:24:20.848Z,17.70
2018-06-22T04:26:23.347Z,17.70
2018-06-22T04:28:25.918Z,17.80
2018-06-22T04:30:28.539Z,17.80
2018-06-22T04:32:31.108Z,17.80
2018-06-22T04:34:33.657Z,17.80
2018-06-22T04:36:36.245Z,17.90
2018-06-22T04:38:38.843Z,17.90
2018-06-22T04:40:41.390Z,17.90
2018-06-22T04:42:43.955Z,18.00
2018-06-22T04:44:46.503Z,18.00
2018-06-22T04:46:49.101Z,18.00
2018-06-22T04:48:51.682Z,18.10
2018-06-22T04:50:54.374Z,18.10
2018-06-22T04:52:57.052Z,18.10
2018-06-22T04:54:59.615Z,18.10
2018-06-22T04:57:02.170Z,18.10
2018-06-22T04:59:04.740Z,18.10
2018-06-22T05:01:07.327Z,18.10
2018-06-22T05:03:09.893Z,18.10
2018-06-22T05:05:12.469Z,18.10
2018-06-22T05:07:15.057Z,18.10
2018-06-22T05:09:17.666Z,18.20
2018-06-22T05:11:20.190Z,18.20
2018-06-22T05:13:22.767Z,18.20
2018-06-22T05:15:25.322Z,18.20
2018-06-22T05:17:27.918Z,18.20
2018-06-22T05:19:30.594Z,18.20
2018-06-22T05:21:33.133Z,18.20
2018-06-22T05:23:35.876Z,18.20
2018-06-22T05:25:38.434Z,18.20
2018-06-22T05:27:40.999Z,18.20
2018-06-22T05:29:43.609Z,18.20
2018-06-22T05:31:47.638Z,18.20
2018-06-22T05:33:50.217Z,18.30
2018-06-22T05:35:52.831Z,18.30
2018-06-22T05:37:55.408Z,18.30
2018-06-22T05:39:57.956Z,18.30
2018-06-22T05:42:00.509Z,18.30
2018-06-22T05:44:03.076Z,18.30
2018-06-22T05:46:05.685Z,18.30
2018-06-22T05:48:08.252Z,18.40
2018-06-22T05:50:10.805Z,18.40
2018-06-22T05:52:13.354Z,18.30
2018-06-22T05:54:16.702Z,18.30
2018-06-22T05:56:19.250Z,18.40
2018-06-22T05:58:21.852Z,18.40
2018-06-22T06:00:24.416Z,18.40
2018-06-22T06:02:26.988Z,18.40
2018-06-22T06:04:29.556Z,18.40
2018-06-22T06:06:32.100Z,18.50
2018-06-22T06:08:34.847Z,18.50
2018-06-22T06:10:37.374Z,18.40
2018-06-22T06:12:39.989Z,18.40
2018-06-22T06:14:42.529Z,18.40
2018-06-22T06:16:45.197Z,18.40
2018-06-22T06:18:47.756Z,18.40
2018-06-22T06:20:50.314Z,18.30
2018-06-22T06:22:52.885Z,18.30
2018-06-22T06:24:55.497Z,18.30
2018-06-22T06:26:58.036Z,18.40
2018-06-22T06:29:00.614Z,18.40
2018-06-22T06:31:03.221Z,18.40
2018-06-22T06:33:05.793Z,18.40
2018-06-22T06:35:08.341Z,18.30
2018-06-22T06:37:10.901Z,18.30
2018-06-22T06:39:13.535Z,18.30
2018-06-22T06:41:16.065Z,18.30
2018-06-22T06:43:18.696Z,18.30
2018-06-22T06:45:21.223Z,18.20
2018-06-22T06:47:23.777Z,18.30
2018-06-22T06:49:26.382Z,18.30
2018-06-22T06:51:28.925Z,18.30
2018-06-22T06:53:31.525Z,18.30
2018-06-22T06:55:34.073Z,18.30
2018-06-22T06:57:36.641Z,18.30
2018-06-22T06:59:39.248Z,18.30
2018-06-22T07:01:41.949Z,18.30
2018-06-22T07:03:44.597Z,18.20
2018-06-22T07:05:47.200Z,18.20
2018-06-22T07:07:49.782Z,18.20
2018-06-22T07:09:52.458Z,18.20
2018-06-22T07:11:54.995Z,18.20
2018-06-22T07:13:57.557Z,18.20
2018-06-22T07:16:00.182Z,18.30
2018-06-22T07:18:04.223Z,18.50
2018-06-22T07:20:06.826Z,18.50
2018-06-22T07:22:09.373Z,18.60
2018-06-22T07:24:11.934Z,18.50
2018-06-22T07:26:14.481Z,18.60
2018-06-22T07:28:17.833Z,18.70
2018-06-22T07:30:20.401Z,18.70
2018-06-22T07:32:23.029Z,18.70
2018-06-22T07:34:26.325Z,18.60
2018-06-22T07:36:29.665Z,18.60
2018-06-22T07:38:32.346Z,18.60
2018-06-22T07:40:34.935Z,18.70
2018-06-22T07:42:37.491Z,18.70
2018-06-22T07:44:40.057Z,18.80
2018-06-22T07:46:43.553Z,18.80
2018-06-22T07:48:46.136Z,18.80
2018-06-22T07:50:48.697Z,18.80
2018-06-22T07:52:51.285Z,18.80
2018-06-22T07:54:53.853Z,18.70
2018-06-22T07:56:56.420Z,18.70
2018-06-22T07:58:58.964Z,18.60
2018-06-22T08:01:01.537Z,18.60
2018-06-22T08:03:04.849Z,18.60
2018-06-22T08:05:07.401Z,18.60
2018-06-22T08:07:10.051Z,18.60
2018-06-22T08:09:14.129Z,18.60
2018-06-22T08:11:16.928Z,18.60
2018-06-22T08:13:19.459Z,18.60
2018-06-22T08:15:22.005Z,18.60
2018-06-22T08:17:24.617Z,18.60
2018-06-22T08:19:27.300Z,18.60
2018-06-22T08:21:29.965Z,18.60
2018-06-22T08:23:32.562Z,18.70
2018-06-22T08:25:35.124Z,18.70
2018-06-22T08:27:37.698Z,18.70
2018-06-22T08:29:40.300Z,18.70
2018-06-22T08:31:43.621Z,18.70
2018-06-22T08:33:46.180Z,18.80
2018-06-22T08:35:49.494Z,18.90
2018-06-22T08:37:52.105Z,18.90
2018-06-22T08:39:54.743Z,19.00
2018-06-22T08:41:58.170Z,19.00
2018-06-22T08:44:00.677Z,19.00
2018-06-22T08:46:03.984Z,19.00
2018-06-22T08:48:06.609Z,19.00
2018-06-22T08:50:09.157Z,19.10
2018-06-22T08:52:11.712Z,19.10
2018-06-22T08:54:14.268Z,19.00
2018-06-22T08:56:17.584Z,19.00
2018-06-22T08:58:20.183Z,19.00
2018-06-22T09:00:22.726Z,18.90
2018-06-22T09:02:25.332Z,18.90
2018-06-22T09:04:27.937Z,18.90
2018-06-22T09:06:30.460Z,18.90
2018-06-22T09:08:33.022Z,18.90
2018-06-22T09:10:35.594Z,18.90
2018-06-22T09:12:38.236Z,18.90
2018-06-22T09:14:40.825Z,18.90
2018-06-22T09:16:44.167Z,18.80
2018-06-22T09:18:46.731Z,18.80
2018-06-22T09:20:49.277Z,18.80
2018-06-22T09:22:51.838Z,18.80
2018-06-22T09:24:54.478Z,18.80
2018-06-22T09:26:58.665Z,18.70
2018-06-22T09:29:01.232Z,18.80
2018-06-22T09:31:03.765Z,18.80
2018-06-22T09:33:07.089Z,18.90
2018-06-22T09:35:09.799Z,18.80
2018-06-22T09:37:12.358Z,18.90
2018-06-22T09:39:14.941Z,18.90
2018-06-22T09:41:17.489Z,18.80
2018-06-22T09:43:20.053Z,18.70
2018-06-22T09:45:22.644Z,18.70
2018-06-22T09:47:25.215Z,18.70
2018-06-22T09:49:27.791Z,18.80
2018-06-22T09:51:30.370Z,18.80
2018-06-22T09:53:32.940Z,18.80
2018-06-22T09:55:35.481Z,18.80
2018-06-22T09:57:38.101Z,18.90
2018-06-22T09:59:40.759Z,18.80
2018-06-22T10:01:43.306Z,18.80
2018-06-22T10:03:45.914Z,18.90
2018-06-22T10:05:48.640Z,18.90
2018-06-22T10:07:51.149Z,18.90
2018-06-22T10:09:53.695Z,18.90
2018-06-22T10:11:56.342Z,19.00
2018-06-22T10:13:58.917Z,19.00
2018-06-22T10:16:03.017Z,19.00
2018-06-22T10:18:05.730Z,19.00
2018-06-22T10:20:08.344Z,19.00
2018-06-22T10:22:10.919Z,19.00
2018-06-22T10:24:13.490Z,19.00
2018-06-22T10:26:16.050Z,19.00
2018-06-22T10:28:18.608Z,19.00
2018-06-22T10:30:21.214Z,18.90
2018-06-22T10:32:23.787Z,18.90
2018-06-22T10:34:26.350Z,18.90
2018-06-22T10:36:28.901Z,19.00
2018-06-22T10:38:31.498Z,19.00
2018-06-22T10:40:34.051Z,19.10
2018-06-22T10:42:36.601Z,19.10
2018-06-22T10:44:39.925Z,19.20
2018-06-22T10:46:42.491Z,19.10
2018-06-22T10:48:45.049Z,19.20
2018-06-22T10:50:47.597Z,19.30
2018-06-22T10:52:50.920Z,19.20
2018-06-22T10:54:53.484Z,19.20
2018-06-22T10:56:56.037Z,19.20
2018-06-22T10:58:59.389Z,19.10
2018-06-22T11:01:01.939Z,19.10
2018-06-22T11:03:04.485Z,19.10
2018-06-22T11:05:07.845Z,19.00
2018-06-22T11:07:10.395Z,19.00
2018-06-22T11:09:12.977Z,19.10
2018-06-22T11:11:15.525Z,19.20
2018-06-22T11:13:18.117Z,19.20
2018-06-22T11:15:20.685Z,19.20
2018-06-22T11:17:23.240Z,19.20
2018-06-22T11:19:25.829Z,19.30
2018-06-22T11:21:28.378Z,19.30
2018-06-22T11:23:31.084Z,19.30
2018-06-22T11:25:33.649Z,19.30
2018-06-22T11:27:36.237Z,19.30
2018-06-22T11:29:38.809Z,19.30
2018-06-22T11:31:41.358Z,19.20
2018-06-22T11:33:44.017Z,19.10
2018-06-22T11:35:46.598Z,19.10
2018-06-22T11:37:50.633Z,19.20
2018-06-22T11:39:53.201Z,19.20
2018-06-22T11:41:55.808Z,19.20
2018-06-22T11:43:58.354Z,19.30
2018-06-22T11:46:00.905Z,19.30
2018-06-22T11:48:03.449Z,19.40
2018-06-22T11:50:06.801Z,19.50
2018-06-22T11:52:09.337Z,19.40
2018-06-22T11:54:11.929Z,19.50
2018-06-22T11:56:14.521Z,19.50
2018-06-22T11:58:17.065Z,19.50
2018-06-22T12:00:19.624Z,19.50
2018-06-22T12:02:22.269Z,19.50
2018-06-22T12:04:24.805Z,19.50
2018-06-22T12:06:27.437Z,19.60
2018-06-22T12:08:29.943Z,19.60
2018-06-22T12:10:32.490Z,19.70
2018-06-22T12:12:35.037Z,19.70
2018-06-22T12:14:38.390Z,19.70
2018-06-22T12:16:40.966Z,19.70
2018-06-22T12:18:43.578Z,19.80
2018-06-22T12:20:46.924Z,19.80
2018-06-22T12:22:49.477Z,19.80
2018-06-22T12:24:52.037Z,19.70
2018-06-22T12:26:54.686Z,19.70
2018-06-22T12:28:58.767Z,19.80
2018-06-22T12:31:01.316Z,19.80
2018-06-22T12:33:03.925Z,19.80
2018-06-22T12:35:06.480Z,19.80
2018-06-22T12:37:09.049Z,19.70
2018-06-22T12:39:11.607Z,19.70
2018-06-22T12:41:14.141Z,19.80
2018-06-22T12:43:17.454Z,19.90
2018-06-22T12:45:20.026Z,19.90
2018-06-22T12:47:23.361Z,19.90
2018-06-22T12:49:25.962Z,19.90
2018-06-22T12:51:28.492Z,19.90
2018-06-22T12:53:31.069Z,19.90
2018-06-22T12:55:33.632Z,19.80
2018-06-22T12:57:36.469Z,19.80
2018-06-22T12:59:39.021Z,19.80
2018-06-22T13:01:41.608Z,19.80
2018-06-22T13:03:44.246Z,19.80
2018-06-22T13:05:46.816Z,19.80
2018-06-22T13:07:49.371Z,19.80
2018-06-22T13:09:52.782Z,19.80
2018-06-22T13:11:55.352Z,19.80
2018-06-22T13:13:58.017Z,19.80
2018-06-22T13:16:00.613Z,19.80
2018-06-22T13:18:03.187Z,19.90
2018-06-22T13:20:05.745Z,19.90
2018-06-22T13:22:08.298Z,20.00
2018-06-22T13:24:11.601Z,20.10
2018-06-22T13:26:14.172Z,20.10
2018-06-22T13:28:16.709Z,20.10
2018-06-22T13:30:20.050Z,20.10
2018-06-22T13:32:22.749Z,20.10
2018-06-22T13:34:25.298Z,20.10
2018-06-22T13:36:27.890Z,20.20
2018-06-22T13:38:30.456Z,20.30
2018-06-22T13:40:33.030Z,20.30
2018-06-22T13:42:35.608Z,20.40
2018-06-22T13:44:38.176Z,20.40
2018-06-22T13:46:40.748Z,20.40
2018-06-22T13:48:43.305Z,20.40
2018-06-22T13:50:45.889Z,20.40
2018-06-22T13:52:48.441Z,20.40
2018-06-22T13:54:51.009Z,20.30
2018-06-22T13:56:53.689Z,20.30
2018-06-22T13:58:56.925Z,20.20
2018-06-22T14:00:59.516Z,20.20
2018-06-22T14:03:03.557Z,20.30
2018-06-22T14:05:24.987Z,20.30
2018-06-22T14:07:27.533Z,20.40
2018-06-22T14:09:30.975Z,20.40
2018-06-22T14:11:33.541Z,20.40
2018-06-22T14:13:36.086Z,20.40
2018-06-22T14:15:38.657Z,20.40
2018-06-22T14:17:41.298Z,20.50
2018-06-22T14:19:43.824Z,20.50
2018-06-22T14:21:46.404Z,20.60
2018-06-22T14:23:48.947Z,20.60
2018-06-22T14:25:51.513Z,20.70
2018-06-22T14:27:54.121Z,20.70
2018-06-22T14:29:56.705Z,20.80
2018-06-22T14:31:59.266Z,20.90
2018-06-22T14:34:01.820Z,20.90
2018-06-22T14:36:04.402Z,21.00
2018-06-22T14:38:07.028Z,21.00
2018-06-22T14:40:09.562Z,21.00
2018-06-22T14:42:12.125Z,21.00
2018-06-22T14:44:14.683Z,21.10
2018-06-22T14:46:17.237Z,21.20
2018-06-22T14:48:20.569Z,21.20
2018-06-22T14:50:23.142Z,21.10
2018-06-22T14:52:25.725Z,21.10
2018-06-22T14:54:48.991Z,21.10
2018-06-22T14:57:07.267Z,21.10
2018-06-22T14:59:27.320Z,21.00
2018-06-22T15:01:49.663Z,21.00
2018-06-22T15:04:07.904Z,21.00
2018-06-22T15:06:27.171Z,21.00
2018-06-22T15:08:31.237Z,21.00
2018-06-22T15:10:33.781Z,21.00
2018-06-22T15:12:36.421Z,21.00
2018-06-22T15:14:38.965Z,21.10
2018-06-22T15:16:41.587Z,21.10
2018-06-22T15:18:44.145Z,21.10
2018-06-22T15:20:46.706Z,21.10
2018-06-22T15:22:49.275Z,21.10
2018-06-22T15:24:51.861Z,21.20
2018-06-22T15:26:54.433Z,21.10
2018-06-22T15:28:57.100Z,21.20
2018-06-22T15:30:59.649Z,21.20
2018-06-22T15:33:02.273Z,21.30
2018-06-22T15:35:10.573Z,21.30
2018-06-22T15:37:33.037Z,21.40
2018-06-22T15:39:50.510Z,21.50
2018-06-22T15:42:12.509Z,21.50
2018-06-22T15:44:33.813Z,21.50
2018-06-22T15:46:52.842Z,21.30
2018-06-22T15:49:12.074Z,21.30
2018-06-22T15:51:29.523Z,21.30
2018-06-22T15:53:50.876Z,21.20
2018-06-22T15:55:53.453Z,21.20
2018-06-22T15:57:56.853Z,21.20
2018-06-22T15:59:59.416Z,21.10
2018-06-22T16:02:02.713Z,21.10
2018-06-22T16:04:05.279Z,21.10
2018-06-22T16:06:07.838Z,21.10
2018-06-22T16:08:11.185Z,21.10
2018-06-22T16:10:13.726Z,21.00
2018-06-22T16:12:16.269Z,21.00
2018-06-22T16:14:19.609Z,21.10
2018-06-22T16:16:27.937Z,21.00
2018-06-22T16:18:45.344Z,21.00
2018-06-22T16:21:04.590Z,20.90
2018-06-22T16:23:22.920Z,20.90
2018-06-22T16:25:42.670Z,20.90
2018-06-22T16:27:45.206Z,20.80
2018-06-22T16:29:47.772Z,20.90
2018-06-22T16:31:50.313Z,20.90
2018-06-22T16:33:52.963Z,20.80
2018-06-22T16:35:55.645Z,20.90
2018-06-22T16:37:58.970Z,20.90
2018-06-22T16:40:01.533Z,20.90
2018-06-22T16:42:04.071Z,20.90
2018-06-22T16:44:08.144Z,21.00
2018-06-22T16:46:10.737Z,21.00
2018-06-22T16:48:13.241Z,21.00
2018-06-22T16:50:16.583Z,21.10
2018-06-22T16:52:19.129Z,21.00
2018-06-22T16:54:21.771Z,21.00
2018-06-22T16:56:24.296Z,21.10
2018-06-22T16:58:26.845Z,21.00
2018-06-22T17:00:29.421Z,21.00
2018-06-22T17:02:32.065Z,21.00
2018-06-22T17:04:34.645Z,21.10
2018-06-22T17:06:37.161Z,21.10
2018-06-22T17:08:56.533Z,21.00
2018-06-22T17:11:13.940Z,21.10
2018-06-22T17:13:32.189Z,21.10
2018-06-22T17:15:49.638Z,21.00
2018-06-22T17:18:07.070Z,21.00
2018-06-22T17:20:09.714Z,20.90
2018-06-22T17:22:12.268Z,20.80
2018-06-22T17:24:14.891Z,20.80
2018-06-22T17:26:17.468Z,20.80
2018-06-22T17:28:20.857Z,20.80
2018-06-22T17:30:23.464Z,20.80
2018-06-22T17:32:25.961Z,20.80
2018-06-22T17:34:28.934Z,20.70
2018-06-22T17:36:31.533Z,20.70
2018-06-22T17:38:34.073Z,20.70
2018-06-22T17:40:36.704Z,20.70
2018-06-22T17:42:39.272Z,20.80
2018-06-22T17:44:41.970Z,20.80
2018-06-22T17:46:44.499Z,20.80
2018-06-22T17:48:47.081Z,20.80
2018-06-22T17:50:49.657Z,20.80
2018-06-22T17:52:52.326Z,20.80
2018-06-22T17:54:54.888Z,20.90
2018-06-22T17:56:57.436Z,20.90
2018-06-22T17:58:59.981Z,21.00
2018-06-22T18:01:19.097Z,21.20
2018-06-22T18:03:42.257Z,21.20
2018-06-22T18:05:44.828Z,21.20
2018-06-22T18:07:47.418Z,21.20
2018-06-22T18:09:49.995Z,21.10
2018-06-22T18:12:08.447Z,21.00
2018-06-22T18:14:11.033Z,21.10
2018-06-22T18:16:13.717Z,21.00
2018-06-22T18:18:16.249Z,21.00
2018-06-22T18:20:18.951Z,21.10
2018-06-22T18:22:21.385Z,21.20
2018-06-22T18:24:23.930Z,21.20
2018-06-22T18:26:26.561Z,21.10
2018-06-22T18:28:29.919Z,20.90
2018-06-22T18:30:32.486Z,20.90
2018-06-22T18:32:35.042Z,20.80
2018-06-22T18:34:37.604Z,20.80
2018-06-22T18:36:40.215Z,20.80
2018-06-22T18:38:42.761Z,20.80
2018-06-22T18:40:46.117Z,20.90
2018-06-22T18:42:48.673Z,20.90
2018-06-22T18:44:51.248Z,20.90
2018-06-22T18:46:53.821Z,20.90
2018-06-22T18:48:56.349Z,21.00
2018-06-22T18:50:58.924Z,21.00
2018-06-22T18:53:02.225Z,21.10
2018-06-22T18:55:10.517Z,21.10
2018-06-22T18:57:28.849Z,21.00
2018-06-22T18:59:39.917Z,21.00
2018-06-22T19:01:58.134Z,20.90
2018-06-22T19:04:00.740Z,20.90
2018-06-22T19:06:04.080Z,20.90
2018-06-22T19:08:06.633Z,20.90
2018-06-22T19:10:09.186Z,20.90
2018-06-22T19:12:11.779Z,20.90
2018-06-22T19:14:15.068Z,20.90
2018-06-22T19:16:17.668Z,20.90
2018-06-22T19:18:20.234Z,20.90
2018-06-22T19:20:22.828Z,20.90
2018-06-22T19:22:25.504Z,20.90
2018-06-22T19:24:28.100Z,20.90
2018-06-22T19:26:32.165Z,20.90
2018-06-22T19:28:34.709Z,20.90
2018-06-22T19:30:37.263Z,20.90
2018-06-22T19:32:40.645Z,20.90
2018-06-22T19:34:43.188Z,20.90
2018-06-22T19:36:45.742Z,20.90
2018-06-22T19:38:48.289Z,20.90
2018-06-22T19:40:50.939Z,20.90
2018-06-22T19:42:53.551Z,20.80
2018-06-22T19:45:12.934Z,20.90
2018-06-22T19:47:31.170Z,20.80
2018-06-22T19:49:48.593Z,20.80
2018-06-22T19:52:06.908Z,20.70
2018-06-22T19:54:10.369Z,20.60
2018-06-22T19:56:12.905Z,20.60
2018-06-22T19:58:15.504Z,20.50
2018-06-22T20:00:18.057Z,20.50
2018-06-22T20:02:20.605Z,20.50
2018-06-22T20:04:23.173Z,20.50
2018-06-22T20:06:25.770Z,20.40
2018-06-22T20:08:28.334Z,20.40
2018-06-22T20:10:30.882Z,20.40
2018-06-22T20:12:34.198Z,20.40
2018-06-22T20:14:36.830Z,20.40
2018-06-22T20:16:39.349Z,20.40
2018-06-22T20:18:41.935Z,20.40
2018-06-22T20:20:44.490Z,20.40
2018-06-22T20:22:47.104Z,20.40
2018-06-22T20:24:49.624Z,20.40
